createdAt,value
2018-01-16T00:00:33.021Z,96.10
2018-01-16T00:03:00.558Z,96.00
2018-01-16T00:05:28.042Z,96.10
2018-01-16T00:07:55.541Z,96.00
2018-01-16T00:10:24.388Z,95.10
2018-01-16T00:12:51.924Z,95.20
2018-01-16T00:15:19.417Z,95.00
2018-01-16T00:17:46.918Z,94.90
2018-01-16T00:20:14.808Z,94.60
2018-01-16T00:22:42.708Z,94.80
2018-01-16T00:25:10.271Z,94.80
2018-01-16T00:27:37.758Z,94.70
2018-01-16T00:30:05.229Z,94.80
2018-01-16T00:32:32.733Z,94.20
2018-01-16T00:35:00.696Z,93.40
2018-01-16T00:37:28.200Z,93.40
2018-01-16T00:39:55.777Z,93.40
2018-01-16T00:42:23.271Z,93.00
2018-01-16T00:44:51.239Z,92.90
2018-01-16T00:47:18.724Z,92.90
2018-01-16T00:49:46.200Z,92.60
2018-01-16T00:52:13.690Z,92.40
2018-01-16T00:54:41.186Z,92.50
2018-01-16T00:57:08.680Z,92.20
2018-01-16T00:59:36.542Z,92.40
2018-01-16T01:02:04.051Z,92.40
2018-01-16T01:04:31.920Z,93.60
2018-01-16T01:06:59.420Z,93.50
2018-01-16T01:09:26.995Z,93.30
2018-01-16T01:11:54.692Z,93.90
2018-01-16T01:14:22.172Z,94.50
2018-01-16T01:16:49.648Z,94.80
2018-01-16T01:19:17.228Z,95.20
2018-01-16T01:21:44.704Z,95.20
2018-01-16T01:24:12.205Z,95.20
2018-01-16T01:26:39.688Z,95.20
2018-01-16T01:29:07.178Z,95.70
2018-01-16T01:31:35.061Z,95.90
2018-01-16T01:34:02.567Z,95.90
2018-01-16T01:36:30.449Z,96.30
2018-01-16T01:38:58.339Z,96.40
2018-01-16T01:41:25.816Z,96.40
2018-01-16T01:43:54.158Z,96.20
2018-01-16T01:46:21.693Z,96.00
2018-01-16T01:48:49.192Z,95.90
2018-01-16T01:51:17.062Z,96.10
2018-01-16T01:53:44.559Z,96.10
2018-01-16T01:56:12.142Z,96.00
2018-01-16T01:58:39.728Z,95.90
2018-01-16T02:01:07.313Z,95.30
2018-01-16T02:03:34.897Z,95.10
2018-01-16T02:06:02.381Z,94.80
2018-01-16T02:08:29.955Z,95.20
2018-01-16T02:10:57.443Z,95.20
2018-01-16T02:13:24.944Z,95.30
2018-01-16T02:15:52.917Z,95.70
2018-01-16T02:18:20.406Z,95.70
2018-01-16T02:20:47.874Z,95.20
2018-01-16T02:23:15.472Z,94.70
2018-01-16T02:25:43.054Z,94.60
2018-01-16T02:28:10.552Z,94.10
2018-01-16T02:30:38.133Z,94.60
2018-01-16T02:33:05.626Z,93.70
2018-01-16T02:35:33.594Z,94.10
2018-01-16T02:38:01.096Z,94.10
2018-01-16T02:40:28.680Z,93.80
2018-01-16T02:42:56.169Z,94.30
2018-01-16T02:45:24.056Z,94.30
2018-01-16T02:47:51.527Z,94.30
2018-01-16T02:50:19.042Z,94.20
2018-01-16T02:52:46.528Z,94.40
2018-01-16T02:55:14.032Z,94.60
2018-01-16T02:57:41.510Z,94.50
2018-01-16T03:00:09.007Z,94.70
2018-01-16T03:02:36.528Z,94.70
2018-01-16T03:05:04.121Z,94.60
2018-01-16T03:07:31.697Z,94.50
2018-01-16T03:09:59.195Z,94.60
2018-01-16T03:12:27.082Z,94.30
2018-01-16T03:14:54.666Z,94.30
2018-01-16T03:17:22.141Z,93.70
2018-01-16T03:19:49.720Z,93.50
2018-01-16T03:22:17.194Z,93.50
2018-01-16T03:24:44.703Z,93.70
2018-01-16T03:27:12.262Z,93.70
2018-01-16T03:29:39.764Z,93.90
2018-01-16T03:32:07.339Z,93.70
2018-01-16T03:34:34.926Z,93.80
2018-01-16T03:37:02.404Z,93.20
2018-01-16T03:39:29.904Z,93.30
2018-01-16T03:41:57.472Z,92.90
2018-01-16T03:44:24.981Z,92.60
2018-01-16T03:46:52.865Z,92.80
2018-01-16T03:49:20.845Z,92.90
2018-01-16T03:51:48.324Z,92.90
2018-01-16T03:54:15.829Z,92.30
2018-01-16T03:56:43.709Z,92.60
2018-01-16T03:59:11.208Z,92.60
2018-01-16T04:01:39.074Z,92.80
2018-01-16T04:04:06.569Z,92.80
2018-01-16T04:06:34.149Z,92.90
2018-01-16T04:09:01.627Z,93.00
2018-01-16T04:11:29.116Z,93.20
2018-01-16T04:13:56.597Z,92.80
2018-01-16T04:16:24.087Z,92.80
2018-01-16T04:18:51.964Z,92.10
2018-01-16T04:21:19.462Z,92.10
2018-01-16T04:23:47.340Z,92.00
2018-01-16T04:26:14.831Z,92.00
2018-01-16T04:28:42.329Z,91.70
2018-01-16T04:31:10.224Z,91.80
2018-01-16T04:33:38.094Z,92.80
2018-01-16T04:36:05.704Z,92.80
2018-01-16T04:38:33.584Z,92.60
2018-01-16T04:41:01.071Z,92.50
2018-01-16T04:43:28.635Z,92.10
2018-01-16T04:45:56.127Z,92.20
2018-01-16T04:48:23.598Z,91.50
2018-01-16T04:50:51.178Z,91.70
2018-01-16T04:53:18.673Z,91.30
2018-01-16T04:55:46.166Z,92.30
2018-01-16T04:58:13.638Z,91.80
2018-01-16T05:00:41.214Z,91.70
2018-01-16T05:03:08.704Z,91.10
2018-01-16T05:05:36.295Z,91.80
2018-01-16T05:08:03.771Z,91.50
2018-01-16T05:10:31.361Z,91.50
2018-01-16T05:12:58.840Z,91.10
2018-01-16T05:15:26.428Z,90.60
2018-01-16T05:17:53.913Z,90.20
2018-01-16T05:20:21.413Z,89.60
2018-01-16T05:22:49.297Z,89.60
2018-01-16T05:25:17.179Z,90.80
2018-01-16T05:27:44.647Z,90.80
2018-01-16T05:30:12.155Z,90.80
2018-01-16T05:32:40.027Z,90.90
2018-01-16T05:35:07.506Z,90.90
2018-01-16T05:37:35.006Z,90.40
2018-01-16T05:40:02.567Z,90.90
2018-01-16T05:42:30.064Z,91.20
2018-01-16T05:44:57.540Z,90.70
2018-01-16T05:47:25.036Z,91.50
2018-01-16T05:49:52.524Z,91.60
2018-01-16T05:52:20.019Z,91.40
2018-01-16T05:54:47.982Z,91.90
2018-01-16T05:57:15.469Z,91.90
2018-01-16T05:59:42.934Z,92.30
2018-01-16T06:02:10.540Z,92.10
2018-01-16T06:04:38.020Z,92.10
2018-01-16T06:07:05.512Z,92.40
2018-01-16T06:09:33.083Z,92.20
2018-01-16T06:12:00.670Z,92.20
2018-01-16T06:14:28.153Z,92.10
2018-01-16T06:16:55.652Z,92.20
2018-01-16T06:19:23.122Z,91.90
2018-01-16T06:21:50.703Z,92.30
2018-01-16T06:24:18.589Z,92.40
2018-01-16T06:26:46.085Z,92.40
2018-01-16T06:29:13.646Z,93.00
2018-01-16T06:31:41.257Z,92.80
2018-01-16T06:34:08.737Z,93.00
2018-01-16T06:36:36.310Z,93.20
2018-01-16T06:39:03.792Z,93.30
2018-01-16T06:41:31.295Z,92.70
2018-01-16T06:43:58.864Z,93.00
2018-01-16T06:46:26.372Z,93.40
2018-01-16T06:48:54.248Z,93.20
2018-01-16T06:51:21.754Z,93.20
2018-01-16T06:53:49.722Z,93.20
2018-01-16T06:56:17.220Z,93.20
2018-01-16T06:58:44.690Z,93.20
2018-01-16T07:01:12.185Z,93.50
2018-01-16T07:03:39.754Z,93.20
2018-01-16T07:06:07.227Z,93.30
2018-01-16T07:08:34.820Z,93.50
2018-01-16T07:11:02.296Z,93.00
2018-01-16T07:13:29.791Z,92.80
2018-01-16T07:15:57.267Z,92.90
2018-01-16T07:18:24.764Z,90.30
2018-01-16T07:20:52.238Z,90.50
2018-01-16T07:23:19.832Z,91.40
2018-01-16T07:25:47.312Z,92.00
2018-01-16T07:28:14.886Z,91.80
2018-01-16T07:30:42.349Z,92.20
2018-01-16T07:33:09.847Z,92.40
2018-01-16T07:35:37.339Z,92.50
2018-01-16T07:38:04.837Z,92.40
2018-01-16T07:40:32.312Z,92.60
2018-01-16T07:42:59.895Z,92.60
2018-01-16T07:45:27.489Z,92.40
2018-01-16T07:47:54.993Z,92.10
2018-01-16T07:50:22.952Z,92.50
2018-01-16T07:52:50.447Z,92.50
2018-01-16T07:55:18.015Z,92.60
2018-01-16T07:57:45.513Z,92.80
2018-01-16T08:00:13.082Z,92.50
2018-01-16T08:02:40.570Z,92.60
2018-01-16T08:05:08.061Z,92.20
2018-01-16T08:07:35.561Z,92.10
2018-01-16T08:10:03.527Z,92.50
2018-01-16T08:12:31.023Z,92.50
2018-01-16T08:14:58.603Z,92.70
2018-01-16T08:17:26.091Z,92.20
2018-01-16T08:19:53.612Z,92.60
2018-01-16T08:22:21.109Z,92.50
2018-01-16T08:24:48.636Z,92.40
2018-01-16T08:27:16.127Z,92.00
2018-01-16T08:29:43.611Z,92.30
2018-01-16T08:32:11.188Z,92.50
2018-01-16T08:34:38.780Z,93.20
2018-01-16T08:37:06.247Z,93.50
2018-01-16T08:39:33.746Z,93.50
2018-01-16T08:42:01.210Z,93.10
2018-01-16T08:44:28.803Z,93.10
2018-01-16T08:46:56.280Z,92.50
2018-01-16T08:49:23.772Z,93.10
2018-01-16T08:51:51.346Z,92.80
2018-01-16T08:54:18.840Z,93.00
2018-01-16T08:56:46.320Z,92.60
2018-01-16T08:59:13.912Z,91.80
2018-01-16T09:01:41.383Z,92.10
2018-01-16T09:04:08.883Z,92.10
2018-01-16T09:06:36.358Z,92.40
2018-01-16T09:09:03.849Z,92.60
2018-01-16T09:11:31.420Z,92.40
2018-01-16T09:13:58.919Z,91.90
2018-01-16T09:16:26.386Z,92.00
2018-01-16T09:18:53.897Z,91.70
2018-01-16T09:21:21.864Z,91.60
2018-01-16T09:23:49.346Z,91.60
2018-01-16T09:26:16.915Z,91.10
2018-01-16T09:28:44.428Z,90.40
2018-01-16T09:31:12.294Z,90.40
2018-01-16T09:33:39.786Z,90.30
2018-01-16T09:36:07.268Z,90.10
2018-01-16T09:38:34.851Z,90.20
2018-01-16T09:41:02.431Z,89.30
2018-01-16T09:43:30.029Z,89.20
2018-01-16T09:45:57.536Z,88.70
2018-01-16T09:48:25.506Z,89.60
2018-01-16T09:50:53.094Z,89.60
2018-01-16T09:53:20.599Z,89.10
2018-01-16T09:55:48.480Z,88.50
2018-01-16T09:58:16.361Z,87.80
2018-01-16T10:00:44.469Z,87.70
2018-01-16T10:03:12.366Z,87.40
2018-01-16T10:05:40.345Z,86.70
2018-01-16T10:08:07.825Z,86.70
2018-01-16T10:10:35.290Z,86.60
2018-01-16T10:13:02.783Z,87.00
2018-01-16T10:15:30.273Z,87.30
2018-01-16T10:17:57.758Z,86.60
2018-01-16T10:20:25.262Z,87.50
2018-01-16T10:22:53.136Z,87.50
2018-01-16T10:25:20.627Z,87.60
2018-01-16T10:27:48.490Z,87.30
2018-01-16T10:30:16.084Z,87.30
2018-01-16T10:32:43.550Z,87.50
2018-01-16T10:35:11.055Z,87.50
2018-01-16T10:37:38.625Z,87.70
2018-01-16T10:40:06.094Z,87.50
2018-01-16T10:42:33.590Z,84.70
2018-01-16T10:45:01.062Z,85.90
2018-01-16T10:47:28.560Z,87.70
2018-01-16T10:49:56.045Z,88.60
2018-01-16T10:52:23.588Z,89.80
2018-01-16T10:54:51.071Z,89.90
2018-01-16T10:57:18.563Z,90.40
2018-01-16T10:59:46.027Z,91.30
2018-01-16T11:02:13.511Z,91.60
2018-01-16T11:04:41.049Z,92.30
2018-01-16T11:07:08.534Z,92.40
2018-01-16T11:09:36.122Z,92.50
2018-01-16T11:12:03.614Z,92.60
2018-01-16T11:14:31.109Z,92.70
2018-01-16T11:16:59.001Z,93.00
2018-01-16T11:19:26.867Z,93.20
2018-01-16T11:21:54.367Z,93.20
2018-01-16T11:24:22.226Z,93.50
2018-01-16T11:26:49.724Z,93.60
2018-01-16T11:29:17.200Z,94.40
2018-01-16T11:31:44.704Z,94.70
2018-01-16T11:34:12.579Z,93.10
2018-01-16T11:36:40.072Z,93.10
2018-01-16T11:39:07.550Z,93.90
2018-01-16T11:41:35.054Z,94.30
2018-01-16T11:44:02.929Z,94.30
2018-01-16T11:46:30.509Z,94.30
2018-01-16T11:48:58.015Z,93.80
2018-01-16T11:51:25.890Z,94.10
2018-01-16T11:53:53.368Z,94.10
2018-01-16T11:56:20.952Z,93.90
2018-01-16T11:58:48.433Z,94.10
2018-01-16T12:01:15.902Z,94.30
2018-01-16T12:03:43.388Z,94.00
2018-01-16T12:06:10.863Z,94.30
2018-01-16T12:08:38.363Z,93.80
2018-01-16T12:11:05.949Z,94.10
2018-01-16T12:13:33.536Z,94.30
2018-01-16T12:16:01.003Z,94.70
2018-01-16T12:18:28.594Z,94.00
2018-01-16T12:20:56.077Z,94.50
2018-01-16T12:23:23.573Z,95.00
2018-01-16T12:25:51.168Z,95.10
2018-01-16T12:28:19.064Z,94.40
2018-01-16T12:30:46.930Z,97.20
2018-01-16T12:33:14.507Z,97.10
2018-01-16T12:35:41.984Z,89.30
2018-01-16T12:38:09.603Z,91.00
2018-01-16T12:40:37.472Z,94.20
2018-01-16T12:43:04.960Z,94.20
2018-01-16T12:45:32.439Z,95.30
2018-01-16T12:47:59.972Z,95.20
2018-01-16T12:50:27.438Z,95.10
2018-01-16T12:52:55.058Z,94.90
2018-01-16T12:55:22.563Z,93.90
2018-01-16T12:57:50.084Z,94.00
2018-01-16T13:00:17.640Z,94.40
2018-01-16T13:02:45.231Z,95.00
2018-01-16T13:05:12.702Z,94.40
2018-01-16T13:07:40.242Z,93.20
2018-01-16T13:10:07.721Z,93.00
2018-01-16T13:12:35.202Z,92.80
2018-01-16T13:15:02.688Z,92.10
2018-01-16T13:17:30.175Z,92.10
2018-01-16T13:19:57.659Z,93.40
2018-01-16T13:22:25.272Z,92.60
2018-01-16T13:24:52.768Z,90.70
2018-01-16T13:27:20.265Z,90.80
2018-01-16T13:29:48.152Z,90.60
2018-01-16T13:32:15.632Z,90.60
2018-01-16T13:34:43.129Z,90.70
2018-01-16T13:37:11.096Z,92.50
2018-01-16T13:39:38.594Z,92.50
2018-01-16T13:42:06.076Z,93.00
2018-01-16T13:44:33.563Z,93.40
2018-01-16T13:47:01.088Z,93.90
2018-01-16T13:49:28.952Z,93.90
2018-01-16T13:51:56.825Z,94.60
2018-01-16T13:54:24.324Z,94.60
2018-01-16T13:56:52.203Z,95.50
2018-01-16T13:59:19.707Z,95.50
2018-01-16T14:01:47.591Z,91.10
2018-01-16T14:04:15.531Z,91.30
2018-01-16T14:06:43.369Z,92.20
2018-01-16T14:09:11.263Z,93.60
2018-01-16T14:11:39.137Z,93.60
2018-01-16T14:14:06.626Z,93.50
2018-01-16T14:16:34.090Z,94.10
2018-01-16T14:19:01.588Z,94.30
2018-01-16T14:21:29.057Z,94.70
2018-01-16T14:23:56.547Z,94.90
2018-01-16T14:26:24.027Z,94.60
2018-01-16T14:28:51.531Z,94.60
2018-01-16T14:31:19.417Z,95.00
2018-01-16T14:33:46.917Z,95.00
2018-01-16T14:36:14.909Z,95.50
2018-01-16T14:38:42.870Z,95.20
2018-01-16T14:41:10.357Z,95.20
2018-01-16T14:43:37.856Z,94.60
2018-01-16T14:46:05.344Z,93.30
2018-01-16T14:48:33.207Z,91.80
2018-01-16T14:51:00.704Z,91.80
2018-01-16T14:53:28.283Z,91.80
2018-01-16T14:55:55.770Z,91.60
2018-01-16T14:58:23.254Z,91.60
2018-01-16T15:00:50.738Z,91.60
2018-01-16T15:03:18.346Z,90.40
2018-01-16T15:05:45.866Z,90.90
2018-01-16T15:08:13.339Z,90.80
2018-01-16T15:10:40.963Z,91.10
2018-01-16T15:13:08.440Z,91.20
2018-01-16T15:15:36.033Z,91.10
2018-01-16T15:18:03.545Z,91.10
2018-01-16T15:20:31.096Z,90.90
2018-01-16T15:22:58.582Z,90.50
2018-01-16T15:25:26.067Z,91.20
2018-01-16T15:27:53.549Z,91.20
2018-01-16T15:30:21.049Z,91.10
2018-01-16T15:32:48.624Z,91.10
2018-01-16T15:35:16.199Z,91.10
2018-01-16T15:37:43.687Z,91.10
2018-01-16T15:40:11.188Z,90.70
2018-01-16T15:42:39.064Z,91.80
2018-01-16T15:45:06.548Z,91.90
2018-01-16T15:47:34.126Z,91.30
2018-01-16T15:50:01.620Z,91.30
2018-01-16T15:52:29.099Z,92.10
2018-01-16T15:54:56.602Z,91.50
2018-01-16T15:57:24.513Z,91.60
2018-01-16T15:59:52.013Z,91.60
2018-01-16T16:02:19.496Z,91.70
2018-01-16T16:04:47.108Z,91.90
2018-01-16T16:07:14.574Z,92.40
2018-01-16T16:09:42.097Z,92.00
2018-01-16T16:12:09.572Z,91.90
2018-01-16T16:14:37.119Z,91.60
2018-01-16T16:17:04.607Z,92.70
2018-01-16T16:19:32.232Z,93.20
2018-01-16T16:21:59.742Z,93.60
2018-01-16T16:24:27.278Z,93.70
2018-01-16T16:26:54.767Z,94.30
2018-01-16T16:29:22.485Z,94.00
2018-01-16T16:31:50.039Z,93.90
2018-01-16T16:34:17.556Z,93.80
2018-01-16T16:36:45.098Z,94.20
2018-01-16T16:39:12.576Z,94.40
2018-01-16T16:41:40.181Z,94.50
2018-01-16T16:44:07.762Z,94.50
2018-01-16T16:46:35.288Z,94.20
2018-01-16T16:49:02.773Z,93.90
2018-01-16T16:51:30.284Z,94.00
2018-01-16T16:53:57.768Z,94.40
2018-01-16T16:56:25.379Z,94.10
2018-01-16T16:58:52.868Z,94.00
2018-01-16T17:01:21.432Z,94.50
2018-01-16T17:03:49.086Z,94.20
2018-01-16T17:06:16.988Z,93.40
2018-01-16T17:08:44.459Z,93.40
2018-01-16T17:11:12.370Z,93.30
2018-01-16T17:13:39.872Z,93.30
2018-01-16T17:16:07.404Z,92.90
2018-01-16T17:18:34.906Z,93.30
2018-01-16T17:21:02.816Z,92.80
2018-01-16T17:23:30.296Z,92.80
2018-01-16T17:25:57.842Z,93.20
2018-01-16T17:28:25.327Z,93.10
2018-01-16T17:30:52.817Z,93.00
2018-01-16T17:33:20.307Z,93.20
2018-01-16T17:35:48.283Z,92.70
2018-01-16T17:38:15.770Z,92.70
2018-01-16T17:40:43.652Z,92.50
2018-01-16T17:43:11.156Z,93.00
2018-01-16T17:45:39.116Z,93.50
2018-01-16T17:48:06.662Z,93.50
2018-01-16T17:50:34.105Z,93.60
2018-01-16T17:53:01.616Z,93.40
2018-01-16T17:55:29.097Z,93.60
2018-01-16T17:57:56.676Z,93.90
2018-01-16T18:00:24.556Z,93.60
2018-01-16T18:02:52.072Z,93.60
2018-01-16T18:05:19.599Z,93.30
2018-01-16T18:07:47.092Z,93.80
2018-01-16T18:10:14.572Z,93.50
2018-01-16T18:12:42.187Z,93.70
2018-01-16T18:15:10.072Z,93.20
2018-01-16T18:17:38.003Z,92.50
2018-01-16T18:20:05.472Z,92.50
2018-01-16T18:22:33.108Z,92.30
2018-01-16T18:25:00.592Z,93.20
2018-01-16T18:27:28.083Z,93.50
2018-01-16T18:29:55.555Z,93.90
2018-01-16T18:32:23.093Z,93.90
2018-01-16T18:34:51.044Z,94.00
2018-01-16T18:37:18.651Z,94.00
2018-01-16T18:39:46.532Z,93.60
2018-01-16T18:42:14.520Z,92.30
2018-01-16T18:44:41.995Z,92.30
2018-01-16T18:47:09.511Z,93.20
2018-01-16T18:49:36.998Z,93.50
2018-01-16T18:52:04.488Z,93.50
2018-01-16T18:54:32.009Z,94.10
2018-01-16T18:56:59.508Z,94.40
2018-01-16T18:59:27.101Z,94.40
2018-01-16T19:01:54.590Z,94.50
2018-01-16T19:04:22.485Z,94.10
2018-01-16T19:06:50.359Z,94.00
2018-01-16T19:09:17.856Z,94.00
2018-01-16T19:11:45.326Z,92.90
2018-01-16T19:14:12.810Z,93.40
2018-01-16T19:16:40.394Z,93.40
2018-01-16T19:19:07.878Z,93.00
2018-01-16T19:21:35.373Z,93.30
2018-01-16T19:24:03.266Z,93.10
2018-01-16T19:26:31.235Z,93.10
2018-01-16T19:28:58.731Z,93.10
2018-01-16T19:31:26.212Z,92.90
2018-01-16T19:33:53.698Z,93.10
2018-01-16T19:36:21.179Z,93.00
2018-01-16T19:38:48.758Z,93.30
2018-01-16T19:41:16.272Z,93.90
2018-01-16T19:43:44.248Z,93.50
2018-01-16T19:46:11.830Z,93.50
2018-01-16T19:48:39.360Z,93.60
2018-01-16T19:51:06.928Z,94.10
2018-01-16T19:53:34.466Z,94.20
2018-01-16T19:56:01.948Z,94.40
2018-01-16T19:58:29.540Z,94.20
2018-01-16T20:00:57.154Z,94.20
2018-01-16T20:03:25.034Z,93.70
2018-01-16T20:05:52.902Z,93.50
2018-01-16T20:08:20.394Z,93.40
2018-01-16T20:10:47.871Z,93.80
2018-01-16T20:13:15.372Z,93.40
2018-01-16T20:15:43.382Z,93.00
2018-01-16T20:18:11.270Z,93.00
2018-01-16T20:20:39.162Z,92.80
2018-01-16T20:23:07.049Z,92.20
2018-01-16T20:25:35.015Z,92.30
2018-01-16T20:28:02.496Z,92.30
2018-01-16T20:30:29.986Z,92.10
2018-01-16T20:32:57.455Z,92.10
2018-01-16T20:35:24.958Z,92.40
2018-01-16T20:37:52.534Z,93.00
2018-01-16T20:40:20.142Z,93.00
2018-01-16T20:42:48.037Z,92.80
2018-01-16T20:45:16.012Z,93.00
2018-01-16T20:47:43.489Z,93.00
2018-01-16T20:50:10.981Z,92.70
2018-01-16T20:52:38.455Z,92.30
2018-01-16T20:55:05.962Z,91.70
2018-01-16T20:57:33.840Z,92.10
2018-01-16T21:00:01.415Z,92.10
2018-01-16T21:02:29.008Z,91.60
2018-01-16T21:04:56.595Z,92.30
2018-01-16T21:07:24.081Z,92.70
2018-01-16T21:09:51.650Z,92.70
2018-01-16T21:12:19.265Z,92.60
2018-01-16T21:14:47.152Z,93.00
2018-01-16T21:17:15.054Z,93.10
2018-01-16T21:19:42.944Z,93.10
2018-01-16T21:22:10.833Z,92.80
2018-01-16T21:24:38.747Z,92.90
2018-01-16T21:27:06.222Z,92.90
2018-01-16T21:29:33.716Z,93.40
2018-01-16T21:32:01.269Z,93.20
2018-01-16T21:34:28.747Z,93.00
2018-01-16T21:36:56.234Z,93.50
2018-01-16T21:39:24.112Z,93.60
2018-01-16T21:41:51.602Z,93.60
2018-01-16T21:44:19.092Z,93.60
2018-01-16T21:46:46.978Z,93.30
2018-01-16T21:49:14.567Z,93.30
2018-01-16T21:51:42.543Z,93.00
2018-01-16T21:54:10.136Z,92.90
2018-01-16T21:56:37.630Z,92.70
2018-01-16T21:59:05.503Z,92.70
2018-01-16T22:01:32.986Z,92.70
2018-01-16T22:04:00.584Z,92.10
2018-01-16T22:06:28.085Z,92.50
2018-01-16T22:08:55.960Z,92.20
2018-01-16T22:11:23.460Z,92.20
2018-01-16T22:13:50.948Z,92.20
2018-01-16T22:16:19.085Z,91.50
2018-01-16T22:18:46.578Z,91.50
2018-01-16T22:21:14.066Z,91.40
2018-01-16T22:23:41.577Z,91.40
2018-01-16T22:26:09.451Z,91.00
2018-01-16T22:28:36.934Z,91.00
2018-01-16T22:31:04.426Z,90.80
2018-01-16T22:33:31.916Z,90.50
2018-01-16T22:35:59.477Z,90.50
2018-01-16T22:38:26.976Z,90.60
2018-01-16T22:40:54.546Z,91.00
2018-01-16T22:43:22.052Z,90.80
2018-01-16T22:45:49.936Z,91.40
2018-01-16T22:48:17.510Z,91.40
2018-01-16T22:50:45.749Z,91.20
2018-01-16T22:53:13.248Z,91.10
2018-01-16T22:55:40.718Z,90.70
2018-01-16T22:58:08.208Z,90.70
2018-01-16T23:00:35.760Z,90.80
2018-01-16T23:03:03.239Z,90.90
2018-01-16T23:05:30.731Z,91.10
2018-01-16T23:07:58.590Z,90.80
2018-01-16T23:10:26.192Z,90.80
2018-01-16T23:12:53.658Z,90.70
2018-01-16T23:15:21.146Z,90.50
2018-01-16T23:17:48.618Z,91.00
2018-01-16T23:20:16.116Z,91.00
2018-01-16T23:22:43.698Z,90.70
2018-01-16T23:25:11.288Z,90.50
2018-01-16T23:27:38.867Z,90.10
2018-01-16T23:30:06.354Z,90.00
2018-01-16T23:32:33.848Z,90.80
2018-01-16T23:35:01.338Z,90.60
2018-01-16T23:37:28.935Z,90.80
2018-01-16T23:39:56.913Z,90.10
2018-01-16T23:42:24.403Z,90.10
2018-01-16T23:44:52.374Z,90.10
2018-01-16T23:47:19.856Z,90.10
2018-01-16T23:49:47.350Z,90.90
2018-01-16T23:52:14.847Z,90.20
2018-01-16T23:54:42.820Z,90.40
2018-01-16T23:57:10.300Z,90.40
2018-01-16T23:59:37.888Z,90.70
